createdAt,value
2019-05-19T00:01:59.437Z,31.97
2019-05-19T00:04:40.455Z,32.97
2019-05-19T00:07:20.942Z,32.37
2019-05-19T00:10:01.573Z,31.17
2019-05-19T00:12:42.499Z,32.03
2019-05-19T00:15:23.752Z,32.70
2019-05-19T00:18:04.654Z,33.13
2019-05-19T00:20:45.722Z,32.77
2019-05-19T00:23:26.201Z,33.30
2019-05-19T00:26:06.957Z,32.87
2019-05-19T00:28:48.074Z,33.43
2019-05-19T00:31:28.766Z,32.53
2019-05-19T00:34:09.373Z,34.83
2019-05-19T00:36:50.360Z,33.83
2019-05-19T00:39:31.304Z,32.90
2019-05-19T00:42:12.004Z,32.87
2019-05-19T00:44:52.826Z,31.80
2019-05-19T00:47:33.634Z,33.30
2019-05-19T00:50:14.569Z,32.37
2019-05-19T00:52:55.409Z,32.60
2019-05-19T00:55:36.086Z,32.93
2019-05-19T00:58:16.887Z,32.37
2019-05-19T01:00:57.804Z,33.07
2019-05-19T01:03:38.106Z,33.23
2019-05-19T01:06:19.005Z,31.93
2019-05-19T01:08:59.818Z,31.27
2019-05-19T01:11:40.370Z,32.17
2019-05-19T01:14:08.969Z,30.77
2019-05-19T01:16:56.832Z,31.30
2019-05-19T01:19:55.624Z,30.33
2019-05-19T01:22:34.556Z,29.70
2019-05-19T01:25:22.326Z,29.90
2019-05-19T01:28:10.136Z,28.43
2019-05-19T01:30:57.981Z,28.77
2019-05-19T01:33:45.773Z,28.77
2019-05-19T01:36:33.916Z,27.87
2019-05-19T01:39:21.710Z,28.17
2019-05-19T01:42:09.585Z,29.50
2019-05-19T01:44:57.371Z,28.53
2019-05-19T01:47:38.235Z,27.50
2019-05-19T01:50:19.090Z,26.00
2019-05-19T01:52:59.563Z,26.60
2019-05-19T01:55:40.294Z,24.00
2019-05-19T01:58:21.211Z,24.93
2019-05-19T02:01:01.644Z,25.83
2019-05-19T02:03:42.258Z,26.43
2019-05-19T02:06:23.151Z,25.53
2019-05-19T02:09:04.841Z,24.27
2019-05-19T02:11:45.919Z,23.87
2019-05-19T02:14:26.799Z,23.37
2019-05-19T02:17:07.929Z,23.77
2019-05-19T02:19:48.467Z,22.93
2019-05-19T02:22:29.269Z,23.47
2019-05-19T02:25:09.625Z,23.70
2019-05-19T02:27:50.378Z,22.70
2019-05-19T02:30:58.910Z,22.20
2019-05-19T02:33:46.788Z,22.47
2019-05-19T02:36:34.585Z,23.07
2019-05-19T02:39:22.386Z,23.63
2019-05-19T02:42:11.058Z,23.17
2019-05-19T02:45:00.179Z,22.50
2019-05-19T02:48:08.676Z,21.37
2019-05-19T02:51:17.197Z,21.30
2019-05-19T02:54:06.012Z,21.03
2019-05-19T02:56:53.873Z,20.97
2019-05-19T02:59:41.676Z,21.07
2019-05-19T03:02:29.493Z,20.73
2019-05-19T03:05:17.422Z,20.63
2019-05-19T03:07:57.692Z,19.33
2019-05-19T03:10:38.621Z,19.93
2019-05-19T03:19:17.891Z,18.97
2019-05-19T03:21:58.190Z,17.90
2019-05-19T03:24:39.047Z,18.20
2019-05-19T03:27:19.411Z,18.63
2019-05-19T03:30:02.141Z,18.60
2019-05-19T03:32:44.846Z,17.40
2019-05-19T03:35:26.151Z,17.57
2019-05-19T03:38:06.997Z,18.20
2019-05-19T03:40:47.496Z,17.07
2019-05-19T03:43:27.892Z,16.43
2019-05-19T03:46:08.724Z,17.80
2019-05-19T03:48:49.208Z,17.47
2019-05-19T03:51:31.916Z,16.50
2019-05-19T03:54:13.095Z,15.90
2019-05-19T03:56:53.613Z,15.50
2019-05-19T03:59:34.385Z,15.40
2019-05-19T04:02:15.024Z,15.73
2019-05-19T04:04:55.831Z,14.83
2019-05-19T04:07:36.530Z,15.03
2019-05-19T04:10:17.499Z,15.17
2019-05-19T04:12:58.752Z,14.13
2019-05-19T04:15:39.195Z,14.17
2019-05-19T04:18:20.214Z,13.87
2019-05-19T04:21:01.309Z,14.40
2019-05-19T04:23:42.245Z,14.10
2019-05-19T04:26:22.707Z,13.80
2019-05-19T04:29:03.728Z,13.70
2019-05-19T04:31:44.478Z,12.80
2019-05-19T04:34:25.673Z,13.47
2019-05-19T04:37:06.148Z,13.83
2019-05-19T04:39:46.810Z,13.73
2019-05-19T04:42:27.375Z,13.67
2019-05-19T04:45:08.518Z,13.50
2019-05-19T04:47:49.140Z,13.80
2019-05-19T04:50:30.027Z,13.60
2019-05-19T04:53:10.774Z,14.13
2019-05-19T04:55:51.746Z,14.03
2019-05-19T04:58:32.438Z,13.37
2019-05-19T05:01:13.058Z,13.53
2019-05-19T05:03:53.526Z,13.63
2019-05-19T05:06:34.330Z,14.27
2019-05-19T05:09:15.112Z,14.20
2019-05-19T05:11:56.024Z,13.27
2019-05-19T05:14:36.389Z,14.27
2019-05-19T05:17:16.870Z,13.33
2019-05-19T05:19:57.138Z,13.50
2019-05-19T05:22:37.881Z,12.57
2019-05-19T05:25:18.448Z,12.50
2019-05-19T05:27:59.271Z,13.20
2019-05-19T05:30:40.193Z,14.00
2019-05-19T05:33:20.551Z,12.50
2019-05-19T05:36:01.323Z,12.43
2019-05-19T05:38:42.083Z,13.07
2019-05-19T05:41:22.609Z,12.77
2019-05-19T05:44:03.392Z,12.73
2019-05-19T05:46:44.406Z,12.20
2019-05-19T05:49:25.286Z,13.20
2019-05-19T05:52:06.226Z,11.90
2019-05-19T05:54:47.483Z,12.00
2019-05-19T05:57:28.705Z,11.67
2019-05-19T06:00:09.494Z,13.23
2019-05-19T06:02:50.314Z,11.70
2019-05-19T06:05:31.201Z,11.93
2019-05-19T06:08:12.130Z,12.10
2019-05-19T06:10:53.029Z,11.20
2019-05-19T06:13:33.598Z,12.63
2019-05-19T06:16:14.170Z,12.37
2019-05-19T06:18:56.794Z,11.70
2019-05-19T06:21:37.844Z,11.43
2019-05-19T06:24:18.158Z,12.20
2019-05-19T06:26:58.614Z,12.00
2019-05-19T06:29:39.222Z,12.87
2019-05-19T06:32:22.147Z,13.30
2019-05-19T06:35:03.197Z,12.97
2019-05-19T06:37:43.693Z,12.43
2019-05-19T06:40:24.566Z,12.60
2019-05-19T06:43:04.932Z,13.07
2019-05-19T06:45:46.018Z,13.13
2019-05-19T06:48:26.682Z,13.47
2019-05-19T06:51:07.544Z,11.87
2019-05-19T06:53:48.603Z,12.10
2019-05-19T06:56:28.944Z,13.10
2019-05-19T06:59:09.758Z,13.10
2019-05-19T07:01:50.074Z,11.67
2019-05-19T07:04:31.090Z,13.87
2019-05-19T07:07:11.584Z,13.07
2019-05-19T07:09:58.632Z,12.50
2019-05-19T07:15:16.515Z,12.63
2019-05-19T07:17:57.304Z,12.33
2019-05-19T07:20:37.830Z,12.10
2019-05-19T07:23:27.776Z,12.83
2019-05-19T07:26:00.958Z,12.20
2019-05-19T07:28:42.153Z,12.30
2019-05-19T07:31:22.990Z,12.30
2019-05-19T07:34:03.608Z,11.87
2019-05-19T07:36:44.147Z,12.57
2019-05-19T07:39:25.046Z,12.30
2019-05-19T07:42:05.627Z,11.77
2019-05-19T07:44:46.422Z,12.07
2019-05-19T07:47:27.048Z,11.20
2019-05-19T07:50:08.034Z,11.70
2019-05-19T07:52:48.902Z,11.87
2019-05-19T07:55:30.238Z,11.60
2019-05-19T07:58:11.335Z,11.63
2019-05-19T08:00:51.915Z,4.00
2019-05-19T08:03:32.826Z,10.33
2019-05-19T08:06:13.622Z,10.33
2019-05-19T08:08:54.327Z,10.53
2019-05-19T08:11:35.244Z,10.80
2019-05-19T08:14:16.442Z,10.53
2019-05-19T08:16:57.272Z,10.73
2019-05-19T08:19:37.647Z,11.57
2019-05-19T08:22:18.106Z,11.00
2019-05-19T08:24:59.224Z,10.83
2019-05-19T08:27:40.204Z,10.60
2019-05-19T08:30:09.181Z,10.63
2019-05-19T08:32:57.050Z,11.73
2019-05-19T08:35:44.818Z,3.83
2019-05-19T08:38:32.741Z,11.17
2019-05-19T08:41:01.366Z,10.47
2019-05-19T08:43:49.290Z,11.93
2019-05-19T08:46:37.092Z,11.80
2019-05-19T08:49:25.136Z,11.27
2019-05-19T08:51:53.657Z,10.63
2019-05-19T08:54:41.602Z,3.43
2019-05-19T08:57:29.470Z,11.40
2019-05-19T09:00:17.495Z,11.17
2019-05-19T09:03:05.578Z,11.93
2019-05-19T09:05:53.349Z,12.40
2019-05-19T09:08:33.980Z,11.83
2019-05-19T09:11:14.334Z,12.20
2019-05-19T09:13:54.950Z,11.17
2019-05-19T09:16:35.634Z,11.47
2019-05-19T09:19:16.824Z,8.43
2019-05-19T09:21:57.128Z,8.13
2019-05-19T09:24:38.160Z,10.57
2019-05-19T09:27:19.206Z,8.93
2019-05-19T09:29:59.803Z,10.70
2019-05-19T09:32:40.647Z,10.23
2019-05-19T09:35:21.850Z,9.97
2019-05-19T09:38:02.563Z,10.97
2019-05-19T09:40:43.453Z,6.43
2019-05-19T09:43:24.163Z,10.60
2019-05-19T09:46:05.734Z,10.27
2019-05-19T09:48:46.529Z,10.57
2019-05-19T09:51:27.285Z,10.37
2019-05-19T09:54:07.858Z,7.07
2019-05-19T09:56:48.863Z,9.33
2019-05-19T09:59:29.936Z,10.07
2019-05-19T10:02:10.509Z,8.80
2019-05-19T10:04:51.562Z,8.37
2019-05-19T10:07:32.667Z,8.93
2019-05-19T10:10:13.306Z,4.97
2019-05-19T10:12:54.325Z,9.07
2019-05-19T10:15:35.477Z,9.60
2019-05-19T10:18:15.843Z,8.97
2019-05-19T10:20:56.917Z,9.13
2019-05-19T10:23:37.820Z,9.67
2019-05-19T10:26:18.752Z,9.47
2019-05-19T10:28:59.822Z,14.67
2019-05-19T10:31:40.201Z,9.03
2019-05-19T10:34:21.014Z,9.17
2019-05-19T10:37:01.706Z,9.00
2019-05-19T10:39:42.421Z,9.03
2019-05-19T10:42:23.518Z,9.07
2019-05-19T10:45:04.860Z,9.20
2019-05-19T10:47:45.538Z,9.37
2019-05-19T10:50:25.999Z,7.83
2019-05-19T10:53:07.091Z,9.43
2019-05-19T10:55:48.161Z,8.90
2019-05-19T10:58:28.733Z,6.83
2019-05-19T11:01:10.129Z,8.57
2019-05-19T11:03:50.446Z,8.47
2019-05-19T11:06:31.399Z,6.93
2019-05-19T11:09:12.190Z,9.33
2019-05-19T11:11:53.077Z,4.20
2019-05-19T11:14:33.797Z,4.07
2019-05-19T11:17:15.091Z,3.60
2019-05-19T11:19:55.599Z,6.27
2019-05-19T11:22:36.732Z,6.30
2019-05-19T11:25:31.587Z,7.60
2019-05-19T11:28:00.539Z,4.80
2019-05-19T11:30:41.388Z,8.47
2019-05-19T11:33:21.743Z,7.77
2019-05-19T11:35:50.241Z,3.90
2019-05-19T11:38:38.021Z,4.00
2019-05-19T11:41:25.809Z,3.83
2019-05-19T11:44:13.574Z,4.10
2019-05-19T11:47:01.410Z,3.57
2019-05-19T11:49:49.465Z,3.53
2019-05-19T11:52:37.645Z,3.60
2019-05-19T11:55:25.755Z,3.33
2019-05-19T11:58:13.534Z,9.03
2019-05-19T12:01:01.330Z,9.60
2019-05-19T12:03:49.104Z,3.77
2019-05-19T12:06:39.743Z,6.87
2019-05-19T12:09:26.965Z,3.67
2019-05-19T12:12:14.745Z,4.03
2019-05-19T12:18:01.374Z,10.30
2019-05-19T12:20:49.479Z,4.10
2019-05-19T12:23:37.414Z,7.20
2019-05-19T12:26:25.292Z,9.63
2019-05-19T12:29:13.075Z,4.53
2019-05-19T12:32:00.931Z,3.90
2019-05-19T12:34:48.718Z,3.53
2019-05-19T12:37:36.790Z,3.60
2019-05-19T12:40:24.837Z,3.80
2019-05-19T12:43:12.716Z,4.07
2019-05-19T12:46:00.886Z,10.40
2019-05-19T12:48:48.677Z,3.73
2019-05-19T12:51:36.449Z,6.03
2019-05-19T12:54:24.545Z,7.60
2019-05-19T12:57:12.662Z,4.17
2019-05-19T13:00:00.803Z,4.67
2019-05-19T13:02:48.599Z,10.30
2019-05-19T13:05:36.779Z,7.00
2019-05-19T13:08:17.663Z,3.33
2019-05-19T13:10:58.285Z,3.67
2019-05-19T13:13:39.073Z,9.67
2019-05-19T13:16:20.100Z,4.50
2019-05-19T13:19:00.772Z,6.00
2019-05-19T13:21:41.456Z,4.00
2019-05-19T13:24:21.766Z,5.43
2019-05-19T13:27:02.342Z,3.63
2019-05-19T13:29:43.454Z,8.60
2019-05-19T13:32:24.890Z,6.20
2019-05-19T13:35:05.567Z,9.63
2019-05-19T13:37:46.078Z,4.07
2019-05-19T13:40:26.417Z,6.17
2019-05-19T13:43:07.790Z,4.30
2019-05-19T13:45:48.935Z,7.90
2019-05-19T13:48:29.606Z,10.57
2019-05-19T13:51:10.478Z,9.20
2019-05-19T13:53:51.075Z,9.50
2019-05-19T13:56:32.435Z,3.90
2019-05-19T13:59:12.768Z,3.80
2019-05-19T14:01:53.553Z,9.87
2019-05-19T14:04:35.076Z,4.10
2019-05-19T14:07:15.760Z,4.93
2019-05-19T14:09:56.551Z,6.47
2019-05-19T14:12:37.706Z,5.30
2019-05-19T14:15:18.782Z,7.37
2019-05-19T14:17:59.426Z,4.53
2019-05-19T14:20:42.106Z,4.00
2019-05-19T14:23:22.374Z,5.33
2019-05-19T14:26:03.275Z,8.70
2019-05-19T14:28:44.212Z,5.10
2019-05-19T14:31:25.266Z,5.07
2019-05-19T14:34:06.320Z,9.50
2019-05-19T14:36:47.280Z,6.67
2019-05-19T14:39:28.332Z,4.87
2019-05-19T14:42:10.572Z,4.70
2019-05-19T14:44:51.733Z,6.90
2019-05-19T14:47:32.712Z,9.37
2019-05-19T14:50:13.638Z,4.43
2019-05-19T14:52:54.795Z,4.50
2019-05-19T14:55:35.271Z,4.60
2019-05-19T14:58:16.396Z,4.07
2019-05-19T15:00:56.983Z,4.43
2019-05-19T15:03:37.797Z,7.63
2019-05-19T15:06:18.421Z,5.30
2019-05-19T15:08:58.853Z,10.00
2019-05-19T15:11:39.602Z,6.17
2019-05-19T15:14:20.610Z,5.50
2019-05-19T15:17:00.877Z,7.67
2019-05-19T15:22:25.153Z,4.17
2019-05-19T15:25:05.423Z,7.90
2019-05-19T15:27:34.189Z,4.67
2019-05-19T15:30:22.191Z,4.17
2019-05-19T15:33:09.963Z,3.70
2019-05-19T15:35:57.771Z,4.23
2019-05-19T15:38:45.590Z,4.20
2019-05-19T15:41:33.837Z,4.70
2019-05-19T15:44:21.779Z,4.17
2019-05-19T15:47:09.600Z,4.37
2019-05-19T15:49:57.462Z,4.43
2019-05-19T15:52:38.058Z,5.30
2019-05-19T15:55:19.094Z,4.80
2019-05-19T15:58:15.262Z,4.30
2019-05-19T16:00:42.742Z,4.13
2019-05-19T16:03:23.613Z,4.87
2019-05-19T16:06:04.078Z,4.63
2019-05-19T16:08:44.935Z,4.53
2019-05-19T16:11:25.870Z,4.47
2019-05-19T16:14:07.468Z,4.40
2019-05-19T16:16:48.755Z,4.40
2019-05-19T16:19:31.114Z,6.93
2019-05-19T16:22:12.046Z,4.60
2019-05-19T16:24:52.817Z,4.33
2019-05-19T16:27:33.775Z,4.40
2019-05-19T16:30:14.274Z,4.50
2019-05-19T16:32:54.735Z,4.93
2019-05-19T16:35:35.697Z,5.30
2019-05-19T16:38:16.515Z,5.03
2019-05-19T16:40:57.405Z,3.90
2019-05-19T16:43:37.712Z,4.77
2019-05-19T16:46:18.283Z,4.90
2019-05-19T16:49:01.518Z,4.50
2019-05-19T16:51:42.531Z,5.07
2019-05-19T16:54:28.143Z,4.63
2019-05-19T16:57:09.379Z,4.77
2019-05-19T16:59:49.691Z,4.70
2019-05-19T17:02:30.633Z,4.40
2019-05-19T17:05:11.162Z,5.07
2019-05-19T17:07:52.137Z,4.67
2019-05-19T17:10:33.532Z,4.77
2019-05-19T17:13:14.071Z,4.80
2019-05-19T17:15:55.119Z,5.00
2019-05-19T17:18:36.120Z,5.10
2019-05-19T17:21:16.611Z,4.60
2019-05-19T17:23:57.504Z,5.17
2019-05-19T17:26:38.349Z,4.47
2019-05-19T17:29:19.126Z,4.80
2019-05-19T17:32:05.954Z,5.20
2019-05-19T17:34:42.622Z,4.93
2019-05-19T17:37:23.514Z,5.37
2019-05-19T17:40:04.057Z,4.83
2019-05-19T17:42:44.868Z,5.00
2019-05-19T17:45:25.955Z,5.37
2019-05-19T17:48:10.115Z,4.70
2019-05-19T17:50:49.567Z,4.83
2019-05-19T17:53:30.350Z,4.90
2019-05-19T17:56:11.101Z,4.83
2019-05-19T17:58:51.535Z,4.73
2019-05-19T18:01:32.241Z,4.70
2019-05-19T18:04:13.082Z,4.70
2019-05-19T18:06:53.670Z,5.03
2019-05-19T18:09:34.677Z,6.47
2019-05-19T18:12:15.046Z,4.73
2019-05-19T18:14:56.079Z,5.00
2019-05-19T18:17:36.916Z,4.80
2019-05-19T18:20:23.821Z,5.40
2019-05-19T18:23:00.386Z,4.37
2019-05-19T18:25:41.202Z,6.07
2019-05-19T18:28:21.667Z,4.70
2019-05-19T18:31:02.196Z,4.60
2019-05-19T18:33:43.298Z,5.00
2019-05-19T18:36:23.840Z,4.60
2019-05-19T18:39:04.723Z,4.90
2019-05-19T18:41:45.383Z,4.60
2019-05-19T18:44:25.938Z,4.53
2019-05-19T18:47:06.602Z,5.10
2019-05-19T18:49:47.060Z,4.87
2019-05-19T18:52:27.647Z,4.60
2019-05-19T18:55:08.564Z,5.13
2019-05-19T18:57:49.104Z,5.33
2019-05-19T19:00:33.049Z,5.03
2019-05-19T19:03:13.749Z,5.07
2019-05-19T19:05:54.953Z,4.93
2019-05-19T19:11:19.218Z,5.00
2019-05-19T19:16:42.672Z,4.80
2019-05-19T19:19:23.179Z,4.93
2019-05-19T19:22:03.791Z,5.00
2019-05-19T19:24:45.012Z,4.87
2019-05-19T19:27:25.857Z,4.90
2019-05-19T19:30:06.537Z,4.70
2019-05-19T19:32:47.660Z,4.60
2019-05-19T19:35:38.315Z,4.70
2019-05-19T19:38:11.140Z,4.17
2019-05-19T19:40:54.362Z,4.80
2019-05-19T19:43:36.611Z,4.87
2019-05-19T19:46:17.058Z,5.30
2019-05-19T19:48:57.442Z,4.60
2019-05-19T19:51:38.517Z,4.40
2019-05-19T19:54:19.266Z,4.60
2019-05-19T19:57:00.587Z,4.57
2019-05-19T19:59:41.884Z,4.97
2019-05-19T20:02:22.655Z,4.93
2019-05-19T20:05:03.807Z,4.27
2019-05-19T20:07:44.822Z,4.90
2019-05-19T20:10:25.539Z,4.30
2019-05-19T20:13:06.235Z,4.67
2019-05-19T20:15:47.123Z,4.17
2019-05-19T20:18:27.977Z,4.37
2019-05-19T20:21:08.942Z,4.50
2019-05-19T20:23:49.832Z,8.37
2019-05-19T20:26:30.803Z,4.50
2019-05-19T20:29:11.240Z,4.73
2019-05-19T20:31:51.950Z,4.33
2019-05-19T20:34:33.062Z,4.23
2019-05-19T20:37:15.279Z,4.80
2019-05-19T20:39:55.964Z,4.53
2019-05-19T20:42:36.304Z,5.57
2019-05-19T20:45:17.070Z,7.07
2019-05-19T20:47:57.844Z,4.50
2019-05-19T20:50:38.874Z,4.20
2019-05-19T20:53:19.582Z,5.10
2019-05-19T20:55:59.968Z,4.67
2019-05-19T20:58:40.475Z,4.40
2019-05-19T21:01:08.897Z,4.63
2019-05-19T21:03:56.682Z,4.37
2019-05-19T21:06:44.477Z,5.03
2019-05-19T21:09:32.254Z,8.17
2019-05-19T21:12:20.120Z,4.43
2019-05-19T21:15:08.218Z,5.73
2019-05-19T21:17:56.003Z,4.40
2019-05-19T21:20:43.820Z,4.67
2019-05-19T21:23:31.674Z,4.90
2019-05-19T21:26:19.476Z,4.93
2019-05-19T21:29:07.270Z,5.30
2019-05-19T21:31:55.044Z,8.10
2019-05-19T21:34:42.841Z,4.77
2019-05-19T21:37:30.952Z,15.53
2019-05-19T21:40:18.790Z,5.67
2019-05-19T21:43:06.834Z,13.13
2019-05-19T21:45:54.646Z,5.60
2019-05-19T21:48:35.705Z,4.77
2019-05-19T21:51:16.235Z,4.50
2019-05-19T21:53:57.071Z,5.90
2019-05-19T21:56:37.553Z,4.30
2019-05-19T21:59:18.483Z,5.57
2019-05-19T22:01:59.269Z,13.83
2019-05-19T22:04:40.075Z,16.03
2019-05-19T22:07:40.271Z,4.50
2019-05-19T22:10:20.867Z,4.73
2019-05-19T22:13:01.577Z,4.47
2019-05-19T22:15:42.586Z,4.67
2019-05-19T22:18:23.597Z,4.17
2019-05-19T22:21:04.820Z,4.50
2019-05-19T22:23:45.493Z,8.93
2019-05-19T22:26:26.167Z,4.63
2019-05-19T22:29:06.566Z,5.27
2019-05-19T22:31:47.217Z,5.50
2019-05-19T22:34:28.445Z,4.67
2019-05-19T22:37:08.914Z,6.07
2019-05-19T22:39:49.497Z,5.03
2019-05-19T22:42:30.287Z,5.23
2019-05-19T22:45:10.666Z,4.90
2019-05-19T22:47:51.806Z,16.10
2019-05-19T22:50:32.873Z,5.00
2019-05-19T22:53:13.485Z,4.70
2019-05-19T22:55:54.734Z,6.60
2019-05-19T22:58:35.310Z,5.00
2019-05-19T23:01:16.101Z,5.63
2019-05-19T23:03:56.730Z,19.20
2019-05-19T23:06:37.807Z,6.30
2019-05-19T23:09:18.754Z,5.07
2019-05-19T23:11:59.424Z,4.77
2019-05-19T23:14:40.034Z,4.47
2019-05-19T23:17:20.998Z,5.10
2019-05-19T23:20:01.471Z,5.70
2019-05-19T23:22:42.791Z,6.30
2019-05-19T23:25:23.368Z,5.43
2019-05-19T23:28:04.446Z,7.20
2019-05-19T23:30:44.883Z,8.03
2019-05-19T23:33:25.520Z,6.10
2019-05-19T23:36:06.159Z,5.33
2019-05-19T23:38:47.258Z,17.70
2019-05-19T23:41:27.822Z,5.73
2019-05-19T23:44:08.695Z,6.67
2019-05-19T23:46:49.030Z,6.40
2019-05-19T23:49:29.841Z,6.03
2019-05-19T23:52:10.221Z,10.70
2019-05-19T23:54:50.984Z,5.70
2019-05-19T23:57:31.716Z,9.00
